createdAt,value
2022-12-28T00:00:30.129Z,242.5
2022-12-28T00:05:30.114Z,250
2022-12-28T00:11:07.107Z,255
2022-12-28T00:15:30.097Z,225
2022-12-28T00:20:30.105Z,225
2022-12-28T00:25:30.103Z,220
2022-12-28T00:30:30.102Z,220
2022-12-28T00:35:30.104Z,227.5
2022-12-28T00:40:30.108Z,222.5
2022-12-28T00:45:30.177Z,220
2022-12-28T00:50:30.099Z,220
2022-12-28T00:55:30.111Z,222.5
2022-12-28T01:00:30.095Z,222.5
2022-12-28T01:05:30.107Z,230
2022-12-28T01:10:30.106Z,230
2022-12-28T01:15:30.105Z,227.5
2022-12-28T01:20:30.096Z,222.5
2022-12-28T01:25:30.100Z,225
2022-12-28T01:30:30.097Z,227.5
2022-12-28T01:35:30.097Z,232.5
2022-12-28T01:40:30.096Z,230
2022-12-28T01:45:30.167Z,225
2022-12-28T01:50:30.100Z,222.5
2022-12-28T01:55:30.110Z,217.5
2022-12-28T02:00:30.098Z,212.5
2022-12-28T02:05:30.119Z,215
2022-12-28T02:10:42.092Z,220
2022-12-28T02:15:30.108Z,217.5
2022-12-28T02:20:30.092Z,215
2022-12-28T02:25:30.095Z,217.5
2022-12-28T02:30:30.153Z,220
2022-12-28T02:35:30.092Z,217.5
2022-12-28T02:40:30.102Z,215
2022-12-28T02:45:30.099Z,207.5
2022-12-28T02:50:30.096Z,200
2022-12-28T02:55:30.092Z,210
2022-12-28T03:00:30.102Z,210
2022-12-28T03:05:30.108Z,217.5
2022-12-28T03:10:30.105Z,220
2022-12-28T03:15:30.288Z,220
2022-12-28T03:20:30.091Z,217.5
2022-12-28T03:25:30.101Z,212.5
2022-12-28T03:30:30.102Z,207.5
2022-12-28T03:35:30.097Z,220
2022-12-28T03:40:30.094Z,225
2022-12-28T03:45:44.535Z,225
2022-12-28T03:50:30.091Z,220
2022-12-28T03:55:30.098Z,220
2022-12-28T04:00:30.095Z,225
2022-12-28T04:05:30.111Z,232.5
2022-12-28T04:10:30.088Z,220
2022-12-28T04:15:30.111Z,220
2022-12-28T04:20:30.086Z,217.5
2022-12-28T04:25:30.099Z,220
2022-12-28T04:30:30.143Z,220
2022-12-28T04:35:30.097Z,212.5
2022-12-28T04:40:30.177Z,202.5
2022-12-28T04:45:30.190Z,195
2022-12-28T04:50:30.145Z,190
2022-12-28T04:55:31.640Z,207.5
2022-12-28T05:00:30.194Z,207.5
2022-12-28T05:05:30.103Z,220
2022-12-28T05:10:30.111Z,210
2022-12-28T05:15:30.107Z,197.5
2022-12-28T05:20:30.098Z,220
2022-12-28T05:25:30.100Z,230
2022-12-28T05:30:30.090Z,240
2022-12-28T05:35:30.112Z,230
2022-12-28T05:40:30.093Z,220
2022-12-28T05:45:30.113Z,227.5
2022-12-28T05:50:30.094Z,220
2022-12-28T05:55:30.107Z,212.5
2022-12-28T06:00:30.110Z,230
2022-12-28T06:05:30.105Z,220
2022-12-28T06:10:30.089Z,227.5
2022-12-28T06:15:30.114Z,220
2022-12-28T06:20:30.122Z,225
2022-12-28T06:25:30.105Z,220
2022-12-28T06:30:30.104Z,220
2022-12-28T06:35:30.102Z,217.5
2022-12-28T06:40:54.497Z,212.5
2022-12-28T06:45:30.162Z,210
2022-12-28T06:50:32.209Z,215
2022-12-28T06:55:30.102Z,207.5
2022-12-28T07:00:30.168Z,212.5
2022-12-28T07:05:30.114Z,212.5
2022-12-28T07:10:30.100Z,212.5
2022-12-28T07:15:30.095Z,215
2022-12-28T07:20:32.104Z,215
2022-12-28T07:25:30.090Z,210
2022-12-28T07:30:30.317Z,212.5
2022-12-28T07:35:30.096Z,205
2022-12-28T07:40:30.093Z,210
2022-12-28T07:45:30.084Z,205
2022-12-28T07:50:34.321Z,205
2022-12-28T07:55:30.093Z,207.5
2022-12-28T08:00:30.093Z,215
2022-12-28T08:05:30.095Z,217.5
2022-12-28T08:10:30.087Z,212.5
2022-12-28T08:15:30.202Z,215
2022-12-28T08:20:30.084Z,215
2022-12-28T08:25:30.092Z,225
2022-12-28T08:30:30.094Z,237.5
2022-12-28T08:35:30.087Z,235
2022-12-28T08:40:30.100Z,245
2022-12-28T08:45:30.149Z,252.5
2022-12-28T08:50:31.832Z,242.5
2022-12-28T08:55:30.094Z,240
2022-12-28T09:00:30.096Z,245
2022-12-28T09:05:33.243Z,235
2022-12-28T09:10:30.099Z,240
2022-12-28T09:15:30.088Z,235
2022-12-28T09:20:30.098Z,230
2022-12-28T09:25:30.091Z,230
2022-12-28T09:30:30.091Z,225
2022-12-28T09:35:30.109Z,230
2022-12-28T09:40:30.089Z,232.5
2022-12-28T09:45:30.096Z,230
2022-12-28T09:50:30.349Z,227.5
2022-12-28T09:55:30.090Z,225
2022-12-28T10:00:30.091Z,227.5
2022-12-28T10:05:30.095Z,225
2022-12-28T10:10:30.093Z,225
2022-12-28T10:15:30.092Z,237.5
2022-12-28T10:20:30.093Z,235
2022-12-28T10:25:30.092Z,235
2022-12-28T10:30:30.091Z,235
2022-12-28T10:35:30.097Z,235
2022-12-28T10:40:30.089Z,232.5
2022-12-28T10:45:30.090Z,232.5
2022-12-28T10:50:37.982Z,230
2022-12-28T10:55:30.124Z,237.5
2022-12-28T11:00:30.110Z,225
2022-12-28T11:05:30.098Z,220
2022-12-28T11:10:30.082Z,235
2022-12-28T11:15:30.090Z,232.5
2022-12-28T11:20:30.101Z,232.5
2022-12-28T11:25:30.095Z,235
2022-12-28T11:30:30.091Z,237.5
2022-12-28T11:35:30.103Z,227.5
2022-12-28T11:40:30.092Z,225
2022-12-28T11:45:30.132Z,222.5
2022-12-28T11:50:30.089Z,222.5
2022-12-28T11:55:30.096Z,225
2022-12-28T12:00:30.092Z,235
2022-12-28T12:05:30.095Z,230
2022-12-28T12:10:30.095Z,227.5
2022-12-28T12:15:30.087Z,230
2022-12-28T12:20:30.090Z,225
2022-12-28T12:25:30.094Z,225
2022-12-28T12:30:30.168Z,222.5
2022-12-28T12:35:30.095Z,225
2022-12-28T12:40:30.081Z,222.5
2022-12-28T12:45:30.104Z,217.5
2022-12-28T12:50:30.093Z,220
2022-12-28T12:55:30.113Z,225
2022-12-28T13:00:30.121Z,230
2022-12-28T13:05:30.098Z,225
2022-12-28T13:10:30.095Z,230
2022-12-28T13:15:30.177Z,227.5
2022-12-28T13:20:30.088Z,220
2022-12-28T13:25:30.093Z,220
2022-12-28T13:30:30.241Z,222.5
2022-12-28T13:35:30.095Z,220
2022-12-28T13:40:30.110Z,222.5
2022-12-28T13:45:30.106Z,222.5
2022-12-28T13:50:30.087Z,215
2022-12-28T13:55:30.095Z,222.5
2022-12-28T14:00:30.090Z,217.5
2022-12-28T14:05:30.145Z,217.5
2022-12-28T14:10:30.090Z,220
2022-12-28T14:15:31.689Z,220
2022-12-28T14:20:30.097Z,227.5
2022-12-28T14:25:30.098Z,215
2022-12-28T14:30:30.102Z,210
2022-12-28T14:35:30.086Z,212.5
2022-12-28T14:40:30.085Z,212.5
2022-12-28T14:45:30.099Z,220
2022-12-28T14:50:30.095Z,215
2022-12-28T14:55:30.119Z,210
2022-12-28T15:00:30.089Z,205
2022-12-28T15:05:30.105Z,190
2022-12-28T15:10:30.089Z,197.5
2022-12-28T15:15:30.090Z,200
2022-12-28T15:20:30.127Z,195
2022-12-28T15:25:30.104Z,197.5
2022-12-28T15:30:30.192Z,200
2022-12-28T15:35:30.100Z,197.5
2022-12-28T15:40:30.106Z,202.5
2022-12-28T15:45:30.109Z,195
2022-12-28T15:50:30.094Z,195
2022-12-28T15:55:30.095Z,195
2022-12-28T16:00:30.146Z,195
2022-12-28T16:05:30.093Z,197.5
2022-12-28T16:10:30.099Z,200
2022-12-28T16:15:30.099Z,210
2022-12-28T16:20:30.101Z,215
2022-12-28T16:25:30.092Z,220
2022-12-28T16:30:30.099Z,217.5
2022-12-28T16:35:30.108Z,217.5
2022-12-28T16:40:30.095Z,220
2022-12-28T16:45:30.146Z,220
2022-12-28T16:50:30.089Z,217.5
2022-12-28T16:55:30.098Z,220
2022-12-28T17:00:30.104Z,222.5
2022-12-28T17:05:30.092Z,207.5
2022-12-28T17:10:30.091Z,195
2022-12-28T17:15:30.097Z,205
2022-12-28T17:20:30.093Z,200
2022-12-28T17:25:30.090Z,200
2022-12-28T17:30:30.085Z,200
2022-12-28T17:35:30.099Z,200
2022-12-28T17:40:30.092Z,192.5
2022-12-28T17:45:30.094Z,197.5
2022-12-28T17:50:30.138Z,197.5
2022-12-28T17:55:30.100Z,197.5
2022-12-28T18:00:30.092Z,207.5
2022-12-28T18:05:30.104Z,205
2022-12-28T18:10:30.100Z,212.5
2022-12-28T18:15:33.132Z,207.5
2022-12-28T18:20:30.093Z,220
2022-12-28T18:25:30.092Z,225
2022-12-28T18:30:30.214Z,220
2022-12-28T18:35:30.108Z,210
2022-12-28T18:40:30.094Z,215
2022-12-28T18:45:30.113Z,210
2022-12-28T18:50:30.095Z,205
2022-12-28T18:55:30.107Z,200
2022-12-28T19:00:30.105Z,197.5
2022-12-28T19:05:30.098Z,200
2022-12-28T19:10:30.101Z,195
2022-12-28T19:15:30.154Z,200
2022-12-28T19:20:30.097Z,197.5
2022-12-28T19:25:30.098Z,195
2022-12-28T19:30:30.102Z,190
2022-12-28T19:35:30.093Z,187.5
2022-12-28T19:40:30.137Z,190
2022-12-28T19:45:30.111Z,195
2022-12-28T19:50:30.117Z,197.5
2022-12-28T19:55:30.122Z,210
2022-12-28T20:00:30.104Z,205
2022-12-28T20:05:30.117Z,200
2022-12-28T20:10:30.137Z,202.5
2022-12-28T20:15:30.113Z,200
2022-12-28T20:20:36.175Z,202.5
2022-12-28T20:25:30.098Z,205
2022-12-28T20:30:30.133Z,210
2022-12-28T20:35:30.130Z,212.5
2022-12-28T20:40:30.092Z,205
2022-12-28T20:45:30.103Z,205
2022-12-28T20:50:30.090Z,205
2022-12-28T20:55:30.107Z,212.5
2022-12-28T21:00:30.098Z,205
2022-12-28T21:05:30.102Z,220
2022-12-28T21:10:30.110Z,212.5
2022-12-28T21:15:30.104Z,207.5
2022-12-28T21:20:33.999Z,207.5
2022-12-28T21:25:30.099Z,207.5
2022-12-28T21:30:30.107Z,217.5
2022-12-28T21:35:34.002Z,212.5
2022-12-28T21:40:30.104Z,210
2022-12-28T21:45:30.135Z,210
2022-12-28T21:50:30.102Z,212.5
2022-12-28T21:55:30.094Z,210
2022-12-28T22:00:30.090Z,210
2022-12-28T22:05:30.102Z,215
2022-12-28T22:10:30.096Z,222.5
2022-12-28T22:15:30.136Z,220
2022-12-28T22:20:30.102Z,212.5
2022-12-28T22:25:30.105Z,220
2022-12-28T22:30:30.122Z,212.5
2022-12-28T22:35:30.094Z,212.5
2022-12-28T22:40:30.103Z,210
2022-12-28T22:45:30.100Z,212.5
2022-12-28T22:50:30.098Z,210
2022-12-28T22:55:30.097Z,200
2022-12-28T23:00:30.108Z,197.5
2022-12-28T23:05:30.121Z,200
2022-12-28T23:10:30.132Z,215
2022-12-28T23:15:30.110Z,215
2022-12-28T23:20:30.091Z,215
2022-12-28T23:25:30.100Z,215
2022-12-28T23:30:30.122Z,217.5
2022-12-28T23:35:30.100Z,210
2022-12-28T23:40:30.116Z,202.5
2022-12-28T23:45:30.103Z,200
2022-12-28T23:50:30.115Z,197.5
2022-12-28T23:55:30.113Z,200
